Time;durP1;ratioP1;P1;durP2;ratioP2;P2;SDS_P1;SDS_P2;PMS_P1;PMS_P2;Temp;Humidity;BMP_temperature;BMP_pressure;BME280_temperature;BME280_humidity;BME280_pressure;Samples;Min_cycle;Max_cycle;Signal;HPM_P1;HPM_P2
2022/07/26 00:02:24;;;;;;;11.52;8.63;;;;;;;;;;10020528;28;20046;-60
2022/07/26 00:07:17;;;;;;;10.60;7.80;;;;;;;;;;10032659;28;20054;-60
2022/07/26 00:12:12;;;;;;;12.18;7.43;;;;;;;;;;10030487;28;20413;-60
2022/07/26 00:17:06;;;;;;;11.95;8.60;;;;;;;;;;10030742;28;20054;-60
2022/07/26 00:27:11;;;;;;;12.43;7.45;;;;;;;;;;10030643;28;20544;-60
2022/07/26 00:32:05;;;;;;;8.80;8.00;;;;;;;;;;10030090;28;20405;-60
2022/07/26 00:36:58;;;;;;;11.80;9.52;;;;;;;;;;10030773;28;20054;-60
2022/07/26 00:41:52;;;;;;;10.63;8.60;;;;;;;;;;10029936;28;20069;-60
2022/07/26 00:46:46;;;;;;;8.77;7.43;;;;;;;;;;10030337;28;20054;-61
2022/07/26 00:51:40;;;;;;;10.60;8.55;;;;;;;;;;10029484;28;20054;-60
2022/07/26 00:56:37;;;;;;;9.85;8.95;;;;;;;;;;10029373;28;20124;-59
2022/07/26 01:01:32;;;;;;;9.65;8.65;;;;;;;;;;10026019;28;20141;-60
2022/07/26 01:06:27;;;;;;;9.25;8.40;;;;;;;;;;10026050;28;20524;-59
2022/07/26 01:11:21;;;;;;;12.05;8.93;;;;;;;;;;10025978;28;20050;-60
2022/07/26 01:16:15;;;;;;;11.18;8.52;;;;;;;;;;10027458;28;20050;-60
2022/07/26 01:21:10;;;;;;;10.07;7.85;;;;;;;;;;10021744;28;20144;-60
2022/07/26 01:26:05;;;;;;;9.65;8.75;;;;;;;;;;10016035;28;20489;-60
2022/07/26 01:31:00;;;;;;;12.77;9.60;;;;;;;;;;10022772;28;20064;-60
2022/07/26 01:35:54;;;;;;;9.90;8.85;;;;;;;;;;10027787;28;20062;-60
2022/07/26 01:40:48;;;;;;;9.75;8.88;;;;;;;;;;10027756;28;20056;-60
2022/07/26 01:45:43;;;;;;;10.15;8.32;;;;;;;;;;10027800;28;20124;-60
2022/07/26 01:50:37;;;;;;;9.77;8.82;;;;;;;;;;10028186;28;20046;-60
2022/07/26 01:55:30;;;;;;;10.30;8.50;;;;;;;;;;10027352;28;20108;-60
2022/07/26 02:00:27;;;;;;;9.18;8.27;;;;;;;;;;10027854;28;20543;-60
2022/07/26 02:05:22;;;;;;;12.35;8.45;;;;;;;;;;10027764;28;20074;-60
2022/07/26 02:10:16;;;;;;;15.63;8.13;;;;;;;;;;10026724;28;20046;-60
2022/07/26 02:15:13;;;;;;;8.85;7.95;;;;;;;;;;10027308;28;20054;-60
2022/07/26 02:20:09;;;;;;;9.27;7.75;;;;;;;;;;10027547;28;20104;-60
2022/07/26 02:25:02;;;;;;;12.80;9.27;;;;;;;;;;10026767;28;20060;-60
2022/07/26 02:29:57;;;;;;;12.43;9.88;;;;;;;;;;10025605;28;20049;-59
2022/07/26 02:34:52;;;;;;;12.65;8.27;;;;;;;;;;10032070;28;20058;-59
2022/07/26 02:39:46;;;;;;;20.48;8.15;;;;;;;;;;10034807;28;20041;-60
2022/07/26 02:44:40;;;;;;;9.38;8.00;;;;;;;;;;10034100;28;20129;-60
2022/07/26 02:49:35;;;;;;;10.68;7.38;;;;;;;;;;10033020;28;20425;-60
2022/07/26 02:54:30;;;;;;;8.07;6.35;;;;;;;;;;10033136;28;20053;-60
2022/07/26 02:59:24;;;;;;;10.65;6.57;;;;;;;;;;10032512;28;20046;-60
2022/07/26 03:04:17;;;;;;;13.43;7.43;;;;;;;;;;10033550;28;20421;-60
2022/07/26 03:09:11;;;;;;;8.68;6.55;;;;;;;;;;10033721;28;20093;-60
2022/07/26 03:14:05;;;;;;;9.60;6.35;;;;;;;;;;10034107;28;20069;-60
2022/07/26 03:19:00;;;;;;;9.05;6.90;;;;;;;;;;10033351;28;20064;-60
2022/07/26 03:23:54;;;;;;;20.55;7.13;;;;;;;;;;10033187;28;20045;-60
2022/07/26 03:28:47;;;;;;;8.73;5.55;;;;;;;;;;10033689;28;20053;-60
2022/07/26 03:33:41;;;;;;;9.50;6.10;;;;;;;;;;10032836;28;20054;-60
2022/07/26 03:38:35;;;;;;;8.65;5.93;;;;;;;;;;10032548;28;20081;-59
2022/07/26 03:43:29;;;;;;;10.48;5.72;;;;;;;;;;10031673;28;20092;-60
2022/07/26 03:48:27;;;;;;;8.68;5.38;;;;;;;;;;10032202;28;20104;-60
2022/07/26 03:53:21;;;;;;;9.82;6.03;;;;;;;;;;10027076;28;20066;-60
2022/07/26 03:58:17;;;;;;;10.85;6.10;;;;;;;;;;10031646;28;20058;-60
2022/07/26 04:03:12;;;;;;;11.55;6.22;;;;;;;;;;10031115;28;20057;-60
2022/07/26 04:08:05;;;;;;;5.55;5.05;;;;;;;;;;10031716;28;20056;-60
2022/07/26 04:12:59;;;;;;;6.63;5.97;;;;;;;;;;10031109;28;20093;-60
2022/07/26 04:17:52;;;;;;;17.17;6.05;;;;;;;;;;10031918;28;20405;-60
2022/07/26 04:22:45;;;;;;;9.82;6.82;;;;;;;;;;10030694;28;20517;-60
2022/07/26 04:27:40;;;;;;;7.50;5.65;;;;;;;;;;10036753;28;20068;-60
2022/07/26 04:32:35;;;;;;;9.95;4.88;;;;;;;;;;10034781;28;20085;-60
2022/07/26 04:37:31;;;;;;;10.70;6.00;;;;;;;;;;10033395;28;20060;-60
2022/07/26 04:42:26;;;;;;;9.77;5.97;;;;;;;;;;10054732;28;20077;-60
2022/07/26 04:47:20;;;;;;;14.68;6.57;;;;;;;;;;10059337;28;20053;-60
2022/07/26 04:52:14;;;;;;;12.25;6.25;;;;;;;;;;10054872;28;20527;-60
2022/07/26 04:57:08;;;;;;;8.50;6.57;;;;;;;;;;10046099;28;20054;-60
2022/07/26 05:02:06;;;;;;;21.15;7.43;;;;;;;;;;10056975;28;20059;-60
2022/07/26 05:07:01;;;;;;;16.10;7.20;;;;;;;;;;10057333;28;20080;-60
2022/07/26 05:11:55;;;;;;;12.38;7.10;;;;;;;;;;10039814;28;20769;-60
2022/07/26 05:16:49;;;;;;;34.42;8.07;;;;;;;;;;10028667;28;20485;-61
2022/07/26 05:21:43;;;;;;;29.80;7.88;;;;;;;;;;10028632;28;20069;-60
2022/07/26 05:26:38;;;;;;;16.20;9.55;;;;;;;;;;10030674;28;20069;-60
2022/07/26 05:31:32;;;;;;;18.67;8.23;;;;;;;;;;10033396;28;20037;-60
2022/07/26 05:36:27;;;;;;;16.40;6.88;;;;;;;;;;10027954;28;20057;-59
2022/07/26 05:41:21;;;;;;;25.20;7.68;;;;;;;;;;10026670;28;20085;-60
2022/07/26 05:46:14;;;;;;;11.90;8.07;;;;;;;;;;10027312;28;20058;-60
2022/07/26 05:51:09;;;;;;;14.60;8.07;;;;;;;;;;10027950;28;20049;-60
2022/07/26 05:56:05;;;;;;;17.60;8.23;;;;;;;;;;10026873;28;20054;-60
2022/07/26 06:00:59;;;;;;;19.90;8.57;;;;;;;;;;10027549;28;20060;-60
2022/07/26 06:05:55;;;;;;;18.77;8.32;;;;;;;;;;10026777;28;20481;-60
2022/07/26 06:10:49;;;;;;;14.95;9.30;;;;;;;;;;10027244;28;20121;-60
2022/07/26 06:15:43;;;;;;;20.90;10.60;;;;;;;;;;10027867;28;20046;-60
2022/07/26 06:20:53;;;;;;;15.13;9.57;;;;;;;;;;9972717;28;20076;-59
2022/07/26 06:25:47;;;;;;;13.90;9.68;;;;;;;;;;10022092;28;20060;-61
2022/07/26 06:30:43;;;;;;;26.92;9.25;;;;;;;;;;10025442;28;20432;-60
2022/07/26 06:35:38;;;;;;;11.98;8.40;;;;;;;;;;10021651;28;20092;-60
2022/07/26 06:40:32;;;;;;;16.23;8.05;;;;;;;;;;10025518;28;20046;-60
2022/07/26 06:45:28;;;;;;;10.85;7.38;;;;;;;;;;10023461;28;20057;-59
2022/07/26 06:50:25;;;;;;;18.00;8.18;;;;;;;;;;10021125;28;20108;-60
2022/07/26 06:55:19;;;;;;;13.15;8.18;;;;;;;;;;10039903;28;20091;-61
2022/07/26 07:00:13;;;;;;;14.10;7.18;;;;;;;;;;10038104;28;20058;-61
2022/07/26 07:05:08;;;;;;;11.27;8.15;;;;;;;;;;10040940;28;20144;-60
2022/07/26 07:10:04;;;;;;;16.30;7.55;;;;;;;;;;10041531;28;20175;-61
2022/07/26 07:14:59;;;;;;;15.57;7.87;;;;;;;;;;10043745;28;20061;-61
2022/07/26 07:19:54;;;;;;;11.52;7.57;;;;;;;;;;10045605;28;20403;-60
2022/07/26 07:24:48;;;;;;;7.43;6.35;;;;;;;;;;10047147;28;20054;-61
2022/07/26 07:29:41;;;;;;;7.85;6.53;;;;;;;;;;10056521;28;20049;-61
2022/07/26 07:34:36;;;;;;;18.30;7.60;;;;;;;;;;10048254;28;20577;-61
2022/07/26 07:39:30;;;;;;;10.18;7.18;;;;;;;;;;10048139;28;20046;-61
2022/07/26 07:44:30;;;;;;;74.07;10.65;;;;;;;;;;10030079;28;20077;-61
2022/07/26 07:49:25;;;;;;;16.10;6.10;;;;;;;;;;10028685;28;20054;-61
2022/07/26 07:54:19;;;;;;;8.20;5.95;;;;;;;;;;10028335;28;20400;-63
2022/07/26 07:59:14;;;;;;;14.48;5.75;;;;;;;;;;10033522;28;20136;-61
2022/07/26 08:04:08;;;;;;;15.18;6.20;;;;;;;;;;10027247;28;20049;-61
2022/07/26 08:09:02;;;;;;;10.10;5.93;;;;;;;;;;10024541;28;20562;-61
2022/07/26 08:13:58;;;;;;;8.90;6.20;;;;;;;;;;10024478;28;20791;-61
2022/07/26 08:18:52;;;;;;;12.18;5.55;;;;;;;;;;10028357;28;20052;-61
2022/07/26 08:23:50;;;;;;;7.97;5.43;;;;;;;;;;10029649;28;20108;-62
2022/07/26 08:28:44;;;;;;;13.27;6.50;;;;;;;;;;10024080;28;20445;-61
2022/07/26 08:33:40;;;;;;;7.97;4.72;;;;;;;;;;10032151;28;20073;-62
2022/07/26 08:38:42;;;;;;;8.85;5.43;;;;;;;;;;10036946;28;20108;-62
2022/07/26 08:43:40;;;;;;;7.38;4.65;;;;;;;;;;10039794;28;20046;-61
2022/07/26 08:48:43;;;;;;;9.20;4.63;;;;;;;;;;10030030;28;20038;-61
2022/07/26 08:53:38;;;;;;;6.63;5.15;;;;;;;;;;10025272;28;20050;-61
2022/07/26 08:58:34;;;;;;;7.82;5.13;;;;;;;;;;10028563;28;20056;-63
2022/07/26 09:03:29;;;;;;;8.57;4.60;;;;;;;;;;10042624;28;20053;-62
2022/07/26 09:08:27;;;;;;;6.43;4.53;;;;;;;;;;10027086;28;20464;-62
2022/07/26 09:13:25;;;;;;;7.00;4.50;;;;;;;;;;10026332;28;20133;-62
2022/07/26 09:18:26;;;;;;;7.68;4.60;;;;;;;;;;10025773;28;20393;-62
2022/07/26 09:23:21;;;;;;;9.70;4.88;;;;;;;;;;10022162;28;22015;-61
2022/07/26 09:28:30;;;;;;;5.57;4.37;;;;;;;;;;10023966;28;20065;-62
2022/07/26 09:33:24;;;;;;;7.28;4.60;;;;;;;;;;10029702;28;20127;-61
2022/07/26 09:38:19;;;;;;;6.00;4.20;;;;;;;;;;10025677;28;20046;-62
2022/07/26 09:43:15;;;;;;;10.27;4.35;;;;;;;;;;10022626;28;20089;-62
2022/07/26 09:48:28;;;;;;;6.68;4.05;;;;;;;;;;10031376;28;20050;-62
2022/07/26 09:53:46;;;;;;;8.10;4.20;;;;;;;;;;10018675;28;20045;-63
2022/07/26 09:58:40;;;;;;;5.28;3.47;;;;;;;;;;10023525;28;20053;-62
2022/07/26 10:03:36;;;;;;;6.70;4.35;;;;;;;;;;10027583;28;20053;-60
2022/07/26 10:08:36;;;;;;;7.93;4.18;;;;;;;;;;10027128;28;20054;-59
2022/07/26 10:13:36;;;;;;;4.90;3.55;;;;;;;;;;10025929;28;20053;-61
2022/07/26 10:18:35;;;;;;;8.63;3.83;;;;;;;;;;10043150;28;20080;-62
2022/07/26 10:23:55;;;;;;;8.13;4.30;;;;;;;;;;10038543;28;20046;-61
2022/07/26 10:28:51;;;;;;;8.80;4.85;;;;;;;;;;10022368;28;20069;-63
2022/07/26 10:33:48;;;;;;;6.97;3.67;;;;;;;;;;10028257;28;20496;-61
2022/07/26 10:39:17;;;;;;;6.93;4.35;;;;;;;;;;10030299;28;20161;-61
2022/07/26 10:44:23;;;;;;;11.45;4.22;;;;;;;;;;10018658;28;20432;-61
2022/07/26 10:49:18;;;;;;;4.38;3.10;;;;;;;;;;10014870;28;20066;-61
2022/07/26 10:54:15;;;;;;;8.10;3.40;;;;;;;;;;10019324;28;20061;-61
2022/07/26 10:59:09;;;;;;;7.93;4.07;;;;;;;;;;10028244;28;20093;-61
2022/07/26 11:04:04;;;;;;;9.88;4.38;;;;;;;;;;10035696;28;20746;-62
2022/07/26 11:08:58;;;;;;;9.60;3.47;;;;;;;;;;10031945;28;20045;-62
2022/07/26 11:13:51;;;;;;;5.90;3.22;;;;;;;;;;10033381;28;20133;-61
2022/07/26 11:18:45;;;;;;;6.60;3.00;;;;;;;;;;10034788;28;20058;-60
2022/07/26 11:24:00;;;;;;;7.00;3.75;;;;;;;;;;10031754;28;20128;-62
2022/07/26 11:29:01;;;;;;;6.20;3.67;;;;;;;;;;10032206;28;20046;-62
2022/07/26 11:33:59;;;;;;;6.28;3.38;;;;;;;;;;10025194;28;20490;-62
2022/07/26 11:38:53;;;;;;;;;;;;;;;;;;10028437;28;20119;-61
2022/07/26 11:43:48;;;;;;;4.17;2.87;;;;;;;;;;10028872;28;19929;-61
2022/07/26 11:48:53;;;;;;;6.50;3.20;;;;;;;;;;10029338;28;20065;-60
2022/07/26 11:53:46;;;;;;;7.60;3.72;;;;;;;;;;10025036;28;20053;-60
2022/07/26 11:58:41;;;;;;;6.00;3.53;;;;;;;;;;10031235;28;20046;-61
2022/07/26 12:03:37;;;;;;;6.43;3.40;;;;;;;;;;10025343;28;20048;-61
2022/07/26 12:08:54;;;;;;;5.75;3.83;;;;;;;;;;10026586;28;20103;-61
2022/07/26 12:14:00;;;;;;;3.78;3.10;;;;;;;;;;10035684;28;20558;-61
2022/07/26 12:18:55;;;;;;;9.38;3.20;;;;;;;;;;10029954;28;20061;-61
2022/07/26 12:23:49;;;;;;;4.83;2.67;;;;;;;;;;10022844;28;20046;-61
2022/07/26 12:28:44;;;;;;;5.18;3.47;;;;;;;;;;10027906;28;20046;-60
2022/07/26 12:33:49;;;;;;;5.78;3.60;;;;;;;;;;10028408;28;20104;-61
2022/07/26 12:38:45;;;;;;;4.80;3.13;;;;;;;;;;10028588;28;20050;-61
2022/07/26 12:43:49;;;;;;;5.80;3.60;;;;;;;;;;10040043;28;20129;-61
2022/07/26 12:48:45;;;;;;;6.13;3.35;;;;;;;;;;10021955;28;20133;-61
2022/07/26 12:53:40;;;;;;;5.63;3.55;;;;;;;;;;10024170;28;20085;-62
2022/07/26 12:58:35;;;;;;;;;;;;;;;;;;10041498;28;20049;-59
2022/07/26 13:03:29;;;;;;;6.33;3.63;;;;;;;;;;10031481;28;19922;-60
2022/07/26 13:08:25;;;;;;;9.13;3.85;;;;;;;;;;10035267;28;20081;-60
2022/07/26 13:13:23;;;;;;;5.03;3.28;;;;;;;;;;10030992;28;20060;-60
2022/07/26 13:18:18;;;;;;;16.23;4.65;;;;;;;;;;10030028;28;20409;-61
2022/07/26 13:23:14;;;;;;;9.68;4.13;;;;;;;;;;10058377;28;20058;-60
2022/07/26 13:28:14;;;;;;;4.85;3.33;;;;;;;;;;10063048;28;20042;-61
2022/07/26 13:33:11;;;;;;;5.53;3.42;;;;;;;;;;10065670;28;20087;-61
2022/07/26 13:38:06;;;;;;;12.27;4.07;;;;;;;;;;10060031;28;20054;-62
2022/07/26 13:43:00;;;;;;;7.97;3.63;;;;;;;;;;10050292;28;20136;-60
2022/07/26 13:47:54;;;;;;;12.07;4.47;;;;;;;;;;10028943;28;20057;-60
2022/07/26 13:52:48;;;;;;;7.10;3.78;;;;;;;;;;10030611;28;20100;-60
2022/07/26 13:57:42;;;;;;;8.88;4.60;;;;;;;;;;10038969;28;20057;-60
2022/07/26 14:02:49;;;;;;;8.45;3.63;;;;;;;;;;10028301;28;20153;-60
2022/07/26 14:07:43;;;;;;;6.13;3.78;;;;;;;;;;10038218;28;20077;-61
2022/07/26 14:12:39;;;;;;;9.13;4.18;;;;;;;;;;10035404;28;20042;-61
2022/07/26 14:17:33;;;;;;;6.28;3.95;;;;;;;;;;10026021;28;20061;-61
2022/07/26 14:22:27;;;;;;;9.45;3.80;;;;;;;;;;10025961;28;20042;-61
2022/07/26 14:27:21;;;;;;;6.90;4.15;;;;;;;;;;10028651;28;20443;-60
2022/07/26 14:32:15;;;;;;;10.43;4.10;;;;;;;;;;10024418;28;20055;-61
2022/07/26 14:37:13;;;;;;;7.40;4.90;;;;;;;;;;10036854;28;20128;-61
2022/07/26 14:42:27;;;;;;;8.63;4.15;;;;;;;;;;10039908;28;20512;-62
2022/07/26 14:47:21;;;;;;;11.23;5.35;;;;;;;;;;10033809;28;20108;-63
2022/07/26 14:52:16;;;;;;;14.30;4.95;;;;;;;;;;10021887;28;20046;-62
2022/07/26 14:57:10;;;;;;;12.85;5.20;;;;;;;;;;10024336;28;20053;-62
2022/07/26 15:02:05;;;;;;;18.50;5.63;;;;;;;;;;10037564;28;20057;-62
2022/07/26 15:06:58;;;;;;;11.07;5.20;;;;;;;;;;10027646;28;20052;-62
2022/07/26 15:11:53;;;;;;;10.82;5.22;;;;;;;;;;10021527;28;20141;-62
2022/07/26 15:16:47;;;;;;;9.98;5.82;;;;;;;;;;10022379;28;20452;-63
2022/07/26 15:21:41;;;;;;;14.85;5.88;;;;;;;;;;10025477;28;20412;-62
2022/07/26 15:26:35;;;;;;;16.33;6.88;;;;;;;;;;10024987;28;20065;-62
2022/07/26 15:31:30;;;;;;;11.73;6.50;;;;;;;;;;10024723;28;20123;-61
2022/07/26 15:36:30;;;;;;;20.25;6.28;;;;;;;;;;10023790;28;20062;-61
2022/07/26 15:41:24;;;;;;;16.98;6.68;;;;;;;;;;10025627;28;20050;-62
2022/07/26 15:46:19;;;;;;;22.42;6.30;;;;;;;;;;10026285;28;20054;-62
2022/07/26 15:51:16;;;;;;;20.17;7.15;;;;;;;;;;10027042;28;20045;-62
2022/07/26 15:56:11;;;;;;;16.15;6.78;;;;;;;;;;10030982;28;20057;-64
2022/07/26 16:01:05;;;;;;;14.90;6.13;;;;;;;;;;10028068;28;20058;-61
2022/07/26 16:06:00;;;;;;;10.13;5.88;;;;;;;;;;10028040;28;20420;-62
2022/07/26 16:10:58;;;;;;;14.93;6.30;;;;;;;;;;10032996;28;20400;-61
2022/07/26 16:15:52;;;;;;;12.35;6.40;;;;;;;;;;10029586;28;20050;-61
2022/07/26 16:20:46;;;;;;;16.60;6.95;;;;;;;;;;10030365;28;20068;-61
2022/07/26 16:25:40;;;;;;;10.68;5.80;;;;;;;;;;10030382;28;20172;-61
2022/07/26 16:30:35;;;;;;;16.75;6.45;;;;;;;;;;10029837;28;20144;-61
2022/07/26 16:35:30;;;;;;;12.90;6.30;;;;;;;;;;10029092;28;20045;-61
2022/07/26 16:40:24;;;;;;;11.18;6.80;;;;;;;;;;10044919;28;20038;-63
2022/07/26 16:45:20;;;;;;;7.05;6.35;;;;;;;;;;10031014;28;20046;-62
2022/07/26 16:50:16;;;;;;;26.02;6.57;;;;;;;;;;10027536;28;20052;-63
2022/07/26 16:55:19;;;;;;;12.02;6.32;;;;;;;;;;10025036;28;20049;-63
2022/07/26 17:00:16;;;;;;;13.63;6.40;;;;;;;;;;10031621;28;20107;-62
2022/07/26 17:05:10;;;;;;;11.18;6.63;;;;;;;;;;10021611;28;20060;-62
2022/07/26 17:10:06;;;;;;;11.98;6.35;;;;;;;;;;10021155;28;20046;-62
2022/07/26 17:15:00;;;;;;;18.17;8.07;;;;;;;;;;10021730;28;20070;-62
2022/07/26 17:19:53;;;;;;;7.35;6.35;;;;;;;;;;10026478;28;20062;-62
2022/07/26 17:24:48;;;;;;;13.43;6.18;;;;;;;;;;10028442;28;20054;-62
2022/07/26 17:29:42;;;;;;;7.78;6.63;;;;;;;;;;10027802;28;20084;-62
2022/07/26 17:34:37;;;;;;;9.40;7.35;;;;;;;;;;10028110;28;20068;-61
2022/07/26 17:39:32;;;;;;;13.30;6.85;;;;;;;;;;10043617;28;20507;-63
2022/07/26 17:44:45;;;;;;;15.95;8.52;;;;;;;;;;10029383;28;20139;-63
2022/07/26 17:49:40;;;;;;;10.02;6.68;;;;;;;;;;10058335;28;20049;-61
2022/07/26 17:54:34;;;;;;;10.40;6.07;;;;;;;;;;10056459;28;20504;-60
2022/07/26 17:59:28;;;;;;;10.35;6.38;;;;;;;;;;10060379;28;20087;-62
2022/07/26 18:04:21;;;;;;;12.38;6.68;;;;;;;;;;10064407;28;20053;-63
2022/07/26 18:09:15;;;;;;;13.00;6.97;;;;;;;;;;10065731;28;20049;-66
2022/07/26 18:14:09;;;;;;;10.27;6.70;;;;;;;;;;10053400;28;20049;-63
2022/07/26 18:19:05;;;;;;;14.63;7.43;;;;;;;;;;10050587;28;20061;-62
2022/07/26 18:23:59;;;;;;;8.90;6.67;;;;;;;;;;10057196;28;20509;-62
2022/07/26 18:29:08;;;;;;;14.63;7.25;;;;;;;;;;10064734;28;20045;-61
2022/07/26 18:34:03;;;;;;;13.88;6.63;;;;;;;;;;10061296;28;20053;-64
2022/07/26 18:38:59;;;;;;;15.07;7.82;;;;;;;;;;10049800;28;20095;-63
2022/07/26 18:43:54;;;;;;;19.60;7.80;;;;;;;;;;10062009;28;20521;-66
2022/07/26 18:48:49;;;;;;;17.08;7.63;;;;;;;;;;10060926;28;20045;-62
2022/07/26 18:53:43;;;;;;;9.63;7.63;;;;;;;;;;10063288;28;20069;-62
2022/07/26 18:58:38;;;;;;;15.18;7.95;;;;;;;;;;10061117;28;20060;-62
2022/07/26 19:03:33;;;;;;;8.40;7.30;;;;;;;;;;10061103;28;20508;-62
2022/07/26 19:08:28;;;;;;;11.27;7.57;;;;;;;;;;10058085;28;20375;-61
2022/07/26 19:13:22;;;;;;;23.75;7.47;;;;;;;;;;10053847;28;20553;-62
2022/07/26 19:18:16;;;;;;;11.88;7.10;;;;;;;;;;10064674;28;20054;-62
2022/07/26 19:23:12;;;;;;;12.32;7.88;;;;;;;;;;10058887;28;20551;-61
2022/07/26 19:28:09;;;;;;;14.73;9.68;;;;;;;;;;10064736;28;20057;-60
2022/07/26 19:33:03;;;;;;;17.05;8.38;;;;;;;;;;10063505;28;20148;-61
2022/07/26 19:37:57;;;;;;;10.02;6.55;;;;;;;;;;10054402;28;20050;-62
2022/07/26 19:42:52;;;;;;;12.38;8.25;;;;;;;;;;10059304;28;20053;-63
2022/07/26 19:47:46;;;;;;;9.77;7.32;;;;;;;;;;10066095;28;20092;-63
2022/07/26 19:52:40;;;;;;;18.83;6.97;;;;;;;;;;10060300;28;20099;-63
2022/07/26 19:57:34;;;;;;;11.32;7.07;;;;;;;;;;10068717;28;20046;-63
2022/07/26 20:02:29;;;;;;;10.88;6.60;;;;;;;;;;10060845;28;20046;-64
2022/07/26 20:07:23;;;;;;;17.73;7.07;;;;;;;;;;10057502;28;20409;-63
2022/07/26 20:12:19;;;;;;;8.02;6.65;;;;;;;;;;10059042;28;20045;-62
2022/07/26 20:17:17;;;;;;;12.15;6.13;;;;;;;;;;10059832;28;20145;-63
2022/07/26 20:22:11;;;;;;;10.65;5.40;;;;;;;;;;10061371;28;20055;-61
2022/07/26 20:27:05;;;;;;;13.43;6.40;;;;;;;;;;10063065;28;20053;-60
2022/07/26 20:31:59;;;;;;;7.18;5.18;;;;;;;;;;10059464;28;20056;-63
2022/07/26 20:36:53;;;;;;;12.10;5.70;;;;;;;;;;10062379;28;20073;-60
2022/07/26 20:41:49;;;;;;;6.75;4.78;;;;;;;;;;10062073;28;20057;-60
2022/07/26 20:46:46;;;;;;;9.48;4.45;;;;;;;;;;10057620;28;20108;-61
2022/07/26 20:51:39;;;;;;;7.15;4.38;;;;;;;;;;10069274;28;20071;-61
2022/07/26 20:56:33;;;;;;;9.60;4.47;;;;;;;;;;10068173;28;20111;-61
2022/07/26 21:01:28;;;;;;;13.63;3.85;;;;;;;;;;10068563;28;20049;-60
2022/07/26 21:06:24;;;;;;;11.07;4.30;;;;;;;;;;10068383;28;20072;-60
2022/07/26 21:11:21;;;;;;;10.60;4.85;;;;;;;;;;10059322;28;20046;-62
2022/07/26 21:16:14;;;;;;;12.52;5.57;;;;;;;;;;10051833;28;20054;-61
2022/07/26 21:21:09;;;;;;;6.00;4.00;;;;;;;;;;10041169;28;20050;-62
2022/07/26 21:26:03;;;;;;;9.93;4.22;;;;;;;;;;10044259;28;20064;-62
2022/07/26 21:30:58;;;;;;;11.65;4.97;;;;;;;;;;10038088;28;20058;-61
2022/07/26 21:35:51;;;;;;;6.05;4.25;;;;;;;;;;10056483;28;20471;-61
2022/07/26 21:40:46;;;;;;;8.55;4.50;;;;;;;;;;10060370;28;20089;-62
2022/07/26 21:45:39;;;;;;;4.07;3.60;;;;;;;;;;10065089;28;20045;-62
2022/07/26 21:50:32;;;;;;;7.38;4.75;;;;;;;;;;10066625;28;20053;-62
2022/07/26 21:55:27;;;;;;;7.22;5.30;;;;;;;;;;10063459;28;20049;-63
2022/07/26 22:00:21;;;;;;;7.90;4.38;;;;;;;;;;10061101;28;20129;-62
2022/07/26 22:05:33;;;;;;;10.00;4.72;;;;;;;;;;10055080;28;20087;-63
2022/07/26 22:10:28;;;;;;;9.18;5.00;;;;;;;;;;10055599;28;20052;-62
2022/07/26 22:15:23;;;;;;;11.13;5.30;;;;;;;;;;10066526;28;20050;-62
2022/07/26 22:20:22;;;;;;;8.80;4.93;;;;;;;;;;10065753;28;20053;-61
2022/07/26 22:25:15;;;;;;;9.90;4.97;;;;;;;;;;10065494;28;20045;-60
2022/07/26 22:30:10;;;;;;;9.85;5.00;;;;;;;;;;10057873;28;20642;-64
2022/07/26 22:35:06;;;;;;;8.43;5.45;;;;;;;;;;10056671;28;20506;-61
2022/07/26 22:40:01;;;;;;;8.02;5.05;;;;;;;;;;10060550;28;20088;-61
2022/07/26 22:44:55;;;;;;;7.40;4.55;;;;;;;;;;10059074;28;20519;-63
2022/07/26 22:49:49;;;;;;;7.60;5.45;;;;;;;;;;10065351;28;20045;-62
2022/07/26 22:54:43;;;;;;;6.68;5.15;;;;;;;;;;10061796;28;20049;-62
2022/07/26 22:59:37;;;;;;;13.85;5.57;;;;;;;;;;10067547;28;20045;-62
2022/07/26 23:04:31;;;;;;;10.00;5.10;;;;;;;;;;10067415;28;20506;-62
2022/07/26 23:09:25;;;;;;;9.77;5.00;;;;;;;;;;10070862;28;20049;-62
2022/07/26 23:14:19;;;;;;;6.75;4.63;;;;;;;;;;10073187;28;20045;-62
2022/07/26 23:19:13;;;;;;;12.57;5.07;;;;;;;;;;10072654;28;20077;-62
2022/07/26 23:24:08;;;;;;;6.75;4.78;;;;;;;;;;10071204;28;20507;-62
2022/07/26 23:29:03;;;;;;;6.03;4.82;;;;;;;;;;10073279;28;20516;-62
2022/07/26 23:33:57;;;;;;;10.45;4.65;;;;;;;;;;10070851;28;20058;-62
2022/07/26 23:38:51;;;;;;;13.85;5.05;;;;;;;;;;10069683;28;20515;-62
2022/07/26 23:43:46;;;;;;;10.20;6.22;;;;;;;;;;10066263;28;20054;-62
2022/07/26 23:48:39;;;;;;;8.77;5.07;;;;;;;;;;10072915;28;20080;-62
2022/07/26 23:53:34;;;;;;;17.50;5.38;;;;;;;;;;10071718;28;20045;-62
2022/07/26 23:58:28;;;;;;;8.32;5.28;;;;;;;;;;10068815;28;20060;-62
